Time;durP1;ratioP1;P1;durP2;ratioP2;P2;SDS_P1;SDS_P2;PMS_P1;PMS_P2;Temp;Humidity;BMP_temperature;BMP_pressure;BME280_temperature;BME280_humidity;BME280_pressure;Samples;Min_cycle;Max_cycle;Signal;HPM_P1;HPM_P2
2022/01/14 00:01:51;;;;;;;32.90;19.03;;;;;;;-3.25;100.00;99004.69;4979623;28;20515;-60
2022/01/14 00:04:21;;;;;;;31.57;18.00;;;;;;;-3.21;100.00;98995.94;4981121;28;20484;-61
2022/01/14 00:06:50;;;;;;;33.07;17.77;;;;;;;-3.06;100.00;99002.31;4979410;28;20513;-58
2022/01/14 00:09:19;;;;;;;24.90;16.77;;;;;;;-3.16;100.00;98994.94;4976313;28;20523;-60
2022/01/14 00:11:50;;;;;;;26.30;15.80;;;;;;;-3.11;100.00;98995.63;4981083;28;20492;-61
2022/01/14 00:14:35;;;;;;;32.80;17.10;;;;;;;-3.01;100.00;98991.78;4979409;28;20906;-60
2022/01/14 00:17:04;;;;;;;27.67;16.43;;;;;;;-3.27;100.00;98990.94;4979066;28;20197;-59
2022/01/14 00:19:32;;;;;;;30.73;17.43;;;;;;;-3.41;100.00;98975.03;4979923;28;21315;-59
2022/01/14 00:22:08;;;;;;;25.93;16.43;;;;;;;-3.31;100.00;98989.34;4977004;28;20472;-58
2022/01/14 00:33:00;;;;;;;33.27;16.33;;;;;;;-3.14;100.00;98987.94;4974954;28;20989;-54
2022/01/14 00:35:28;;;;;;;30.00;17.97;;;;;;;-3.03;100.00;98993.59;4978185;28;20480;-59
2022/01/14 00:37:58;;;;;;;33.97;18.40;;;;;;;-3.08;100.00;98991.16;4976038;28;20466;-57
2022/01/14 00:40:26;;;;;;;25.10;16.83;;;;;;;-3.09;100.00;98988.63;4974578;28;21243;-56
2022/01/14 00:42:54;;;;;;;32.60;17.90;;;;;;;-3.21;100.00;98987.31;4978605;28;20477;-57
2022/01/14 00:45:23;;;;;;;29.57;17.77;;;;;;;-3.11;100.00;98980.06;4980563;28;20481;-57
2022/01/14 00:47:51;;;;;;;28.43;16.40;;;;;;;-3.22;100.00;98983.88;4973342;28;20751;-58
2022/01/14 00:50:20;;;;;;;36.00;17.73;;;;;;;-3.41;100.00;98980.22;4977194;28;20956;-61
2022/01/14 00:52:49;;;;;;;27.57;17.33;;;;;;;-3.35;100.00;98985.19;4978979;28;20951;-51
2022/01/14 00:55:26;;;;;;;39.03;19.57;;;;;;;-3.36;100.00;98981.75;4976148;28;20547;-53
2022/01/14 01:00:40;;;;;;;31.30;18.63;;;;;;;-3.30;100.00;98980.69;4977446;28;21419;-58
2022/01/14 01:03:09;;;;;;;40.60;19.33;;;;;;;-3.30;100.00;98975.50;4979665;28;20474;-58
2022/01/14 01:05:37;;;;;;;38.87;19.70;;;;;;;-3.30;100.00;98980.69;4975367;28;20481;-58
2022/01/14 01:08:09;;;;;;;33.47;18.53;;;;;;;-3.40;100.00;98974.97;4979156;28;20488;-58
2022/01/14 01:10:47;;;;;;;27.40;15.87;;;;;;;-3.32;100.00;98960.91;4977596;28;21029;-58
2022/01/14 01:13:21;;;;;;;27.23;15.40;;;;;;;-3.45;100.00;98961.31;4974576;28;20461;-55
2022/01/14 01:15:49;;;;;;;39.43;17.13;;;;;;;-3.43;100.00;98963.84;4978816;28;20515;-60
2022/01/14 01:18:19;;;;;;;33.57;18.20;;;;;;;-3.37;100.00;98968.81;4975245;28;20544;-58
2022/01/14 01:20:47;;;;;;;34.93;17.43;;;;;;;-3.29;100.00;98963.41;4979129;28;20496;-56
2022/01/14 01:23:15;;;;;;;37.73;18.87;;;;;;;-3.33;100.00;98969.59;4975738;28;20812;-58
2022/01/14 01:25:49;;;;;;;38.30;17.50;;;;;;;-3.34;100.00;98973.91;4974511;28;20509;-59
2022/01/14 01:28:42;;;;;;;34.07;15.93;;;;;;;-3.30;100.00;98977.25;4962026;28;20525;-61
2022/01/14 01:31:35;;;;;;;28.07;16.50;;;;;;;-3.30;100.00;98964.28;4976241;28;20563;-56
2022/01/14 01:34:00;;;;;;;32.30;15.60;;;;;;;-3.36;100.00;98960.16;4974661;28;20576;-57
2022/01/14 01:36:28;;;;;;;29.13;17.03;;;;;;;-3.30;100.00;98957.34;4973171;28;21019;-58
2022/01/14 01:38:56;;;;;;;37.10;16.57;;;;;;;-3.33;100.00;98951.44;4973083;28;21226;-59
2022/01/14 01:41:26;;;;;;;33.57;16.60;;;;;;;-3.49;100.00;98942.44;4977341;28;20538;-57
2022/01/14 01:43:55;;;;;;;24.40;14.30;;;;;;;-3.44;100.00;98937.06;4972596;28;20538;-56
2022/01/14 01:46:23;;;;;;;28.60;15.73;;;;;;;-3.31;100.00;98929.72;4970640;28;20471;-59
2022/01/14 01:48:52;;;;;;;26.03;13.60;;;;;;;-3.45;100.00;98931.97;4977523;28;20509;-57
2022/01/14 01:51:21;;;;;;;27.33;14.43;;;;;;;-3.69;100.00;98927.56;4971174;28;20468;-58
2022/01/14 01:53:50;;;;;;;25.20;13.37;;;;;;;-3.61;100.00;98926.44;4974739;28;20488;-57
2022/01/14 01:56:18;;;;;;;23.30;13.13;;;;;;;-3.69;100.00;98924.09;4974589;28;20495;-56
2022/01/14 01:58:48;;;;;;;27.23;14.27;;;;;;;-3.73;100.00;98925.13;4974165;28;21128;-53
2022/01/14 02:01:16;;;;;;;28.00;13.70;;;;;;;-3.75;100.00;98925.19;4976268;28;20561;-58
2022/01/14 02:03:45;;;;;;;27.23;15.03;;;;;;;-3.76;100.00;98913.13;4975961;28;20493;-60
2022/01/14 02:06:13;;;;;;;26.70;16.87;;;;;;;-3.67;100.00;98920.59;4975122;28;21041;-55
2022/01/14 02:08:41;;;;;;;26.17;14.87;;;;;;;-3.65;100.00;98923.09;4975658;28;20492;-58
2022/01/14 02:11:10;;;;;;;21.83;14.37;;;;;;;-3.70;100.00;98912.06;4977117;28;20839;-58
2022/01/14 02:13:38;;;;;;;30.77;15.20;;;;;;;-3.77;100.00;98903.66;4975429;28;20523;-60
2022/01/14 02:16:20;;;;;;;31.63;16.00;;;;;;;-3.82;100.00;98903.81;4974561;28;20973;-57
2022/01/14 02:19:11;;;;;;;29.67;16.60;;;;;;;-3.69;100.00;98905.97;4972995;28;20832;-57
2022/01/14 02:24:54;;;;;;;20.83;13.60;;;;;;;-3.80;100.00;98898.56;4973188;28;21041;-59
2022/01/14 02:27:22;;;;;;;28.53;15.47;;;;;;;-3.85;100.00;98887.50;4978238;28;20508;-56
2022/01/14 02:29:50;;;;;;;24.93;13.97;;;;;;;-3.72;100.00;98878.44;4975047;28;20631;-58
2022/01/14 02:32:18;;;;;;;31.33;15.87;;;;;;;-3.78;100.00;98879.50;4979208;28;20456;-54
2022/01/14 02:34:47;;;;;;;25.50;13.60;;;;;;;-3.67;100.00;98875.69;4971712;28;20520;-56
2022/01/14 02:37:36;;;;;;;24.53;12.70;;;;;;;-3.78;100.00;98876.06;4978178;28;20457;-56
2022/01/14 02:40:06;;;;;;;23.80;12.67;;;;;;;-3.68;100.00;98868.81;4980357;28;20469;-53
2022/01/14 02:42:34;;;;;;;27.23;14.93;;;;;;;-3.80;100.00;98870.06;4977284;28;20577;-60
2022/01/14 02:45:06;;;;;;;25.03;13.40;;;;;;;-3.75;100.00;98867.31;4974340;28;20524;-58
2022/01/14 02:47:35;;;;;;;24.93;12.40;;;;;;;-3.76;100.00;98856.13;4975142;28;20568;-59
2022/01/14 02:50:04;;;;;;;23.47;14.40;;;;;;;-3.63;100.00;98856.53;4975015;28;20492;-56
2022/01/14 02:52:43;;;;;;;25.60;13.67;;;;;;;-3.65;100.00;98864.38;4977722;28;20567;-58
2022/01/14 02:55:18;;;;;;;24.70;13.93;;;;;;;-3.74;100.00;98849.16;4974380;28;20489;-57
2022/01/14 02:57:48;;;;;;;27.10;13.47;;;;;;;-3.74;100.00;98850.88;4981005;28;20463;-58
2022/01/14 03:00:18;;;;;;;26.77;13.00;;;;;;;-3.85;100.00;98846.94;4977422;28;21163;-59
2022/01/14 03:02:49;;;;;;;23.40;13.90;;;;;;;-3.77;100.00;98833.72;4975359;28;20496;-54
2022/01/14 03:05:19;;;;;;;19.33;11.43;;;;;;;-3.86;100.00;98834.88;4980381;28;20504;-58
2022/01/14 03:07:48;;;;;;;24.33;12.60;;;;;;;-3.99;100.00;98833.59;4981702;28;20503;-57
2022/01/14 03:10:19;;;;;;;25.57;13.83;;;;;;;-3.98;100.00;98825.78;4977972;28;20529;-57
2022/01/14 03:12:48;;;;;;;24.20;14.70;;;;;;;-4.02;100.00;98829.38;4979228;28;20465;-55
2022/01/14 03:15:16;;;;;;;25.13;12.70;;;;;;;-4.05;100.00;98826.88;4976569;28;20519;-60
2022/01/14 03:17:44;;;;;;;22.00;12.70;;;;;;;-4.12;100.00;98831.41;4977663;28;20488;-57
2022/01/14 03:20:35;;;;;;;28.07;13.03;;;;;;;-4.08;100.00;98829.56;4976465;28;20489;-57
2022/01/14 03:23:05;;;;;;;22.20;13.70;;;;;;;-4.14;100.00;98830.63;4976287;28;20960;-57
2022/01/14 03:25:48;;;;;;;31.93;15.20;;;;;;;-4.22;100.00;98822.25;4978366;28;20583;-59
2022/01/14 03:28:18;;;;;;;31.03;15.63;;;;;;;-4.02;100.00;98828.50;4975328;28;20461;-57
2022/01/14 03:30:46;;;;;;;30.20;15.53;;;;;;;-4.20;100.00;98820.47;4982579;28;20520;-58
2022/01/14 03:33:14;;;;;;;33.00;15.17;;;;;;;-4.17;100.00;98828.13;4982026;28;20464;-59
2022/01/14 03:35:43;;;;;;;28.57;14.93;;;;;;;-4.04;100.00;98830.31;4980133;28;20516;-61
2022/01/14 03:38:11;;;;;;;31.57;14.47;;;;;;;-3.99;100.00;98834.44;4978738;28;20555;-56
2022/01/14 03:40:40;;;;;;;22.97;12.27;;;;;;;-4.04;100.00;98830.31;4976746;28;20547;-58
2022/01/14 03:43:09;;;;;;;25.23;15.43;;;;;;;-4.08;100.00;98834.75;4977541;28;20460;-58
2022/01/14 03:45:38;;;;;;;25.67;13.97;;;;;;;-4.03;100.00;98814.72;4978322;28;20485;-58
2022/01/14 03:48:06;;;;;;;25.27;13.70;;;;;;;-4.08;100.00;98819.22;4976165;28;20762;-57
2022/01/14 03:50:35;;;;;;;26.93;14.67;;;;;;;-4.07;100.00;98813.16;4977043;28;20562;-59
2022/01/14 03:53:03;;;;;;;27.40;15.67;;;;;;;-4.18;100.00;98817.81;4978596;28;20497;-59
2022/01/14 03:55:37;;;;;;;23.73;15.07;;;;;;;-4.12;100.00;98802.94;4975189;28;20512;-56
2022/01/14 03:58:07;;;;;;;31.07;15.40;;;;;;;-4.08;100.00;98806.28;4978345;28;20540;-59
2022/01/14 04:00:35;;;;;;;27.13;13.97;;;;;;;-4.00;100.00;98813.75;4979886;28;20543;-56
2022/01/14 04:03:04;;;;;;;31.13;16.43;;;;;;;-4.07;100.00;98813.16;4976766;28;21043;-54
2022/01/14 04:05:32;;;;;;;31.37;17.30;;;;;;;-3.99;100.00;98812.88;4975177;28;20481;-51
2022/01/14 04:08:00;;;;;;;29.03;16.20;;;;;;;-3.99;100.00;98818.03;4976768;28;20468;-60
2022/01/14 04:10:29;;;;;;;30.73;15.70;;;;;;;-3.95;100.00;98815.31;4979389;28;20517;-57
2022/01/14 04:13:01;;;;;;;34.03;16.83;;;;;;;-4.05;100.00;98807.91;4977664;28;20520;-54
2022/01/14 04:15:43;;;;;;;28.93;15.60;;;;;;;-4.03;100.00;98803.50;4978795;28;20481;-56
2022/01/14 04:18:14;;;;;;;28.83;14.67;;;;;;;-3.94;100.00;98809.22;4977793;28;20484;-56
2022/01/14 04:20:44;;;;;;;33.17;16.20;;;;;;;-3.90;100.00;98814.31;4978967;28;20457;-58
2022/01/14 04:23:13;;;;;;;29.03;16.00;;;;;;;-4.08;100.00;98825.22;4975369;28;21204;-56
2022/01/14 04:25:42;;;;;;;29.27;15.87;;;;;;;-4.03;100.00;98825.09;4972613;28;20693;-60
2022/01/14 04:28:10;;;;;;;26.83;15.63;;;;;;;-3.91;100.00;98821.25;4974323;28;20667;-56
2022/01/14 04:30:40;;;;;;;31.23;17.33;;;;;;;-3.98;100.00;98819.72;4971141;28;20944;-59
2022/01/14 04:33:08;;;;;;;31.03;15.13;;;;;;;-3.98;100.00;98812.81;4973724;28;20515;-56
2022/01/14 04:35:37;;;;;;;31.57;15.10;;;;;;;-3.76;100.00;98816.41;4976977;28;20558;-54
2022/01/14 04:38:05;;;;;;;35.43;17.30;;;;;;;-3.85;100.00;98820.16;4974536;28;20554;-58
2022/01/14 04:40:34;;;;;;;28.23;17.23;;;;;;;-3.71;100.00;98810.19;4979246;28;20456;-59
2022/01/14 04:43:02;;;;;;;35.23;18.07;;;;;;;-3.93;100.00;98812.69;4977016;28;21191;-57
2022/01/14 04:45:42;;;;;;;27.33;17.23;;;;;;;-3.83;100.00;98806.28;4975671;28;21137;-60
2022/01/14 04:48:15;;;;;;;27.10;16.40;;;;;;;-3.92;100.00;98799.66;4976977;28;20464;-60
2022/01/14 04:50:49;;;;;;;29.67;15.37;;;;;;;-3.95;100.00;98797.19;4973536;28;21002;-60
2022/01/14 04:53:17;;;;;;;39.83;16.27;;;;;;;-3.99;100.00;98793.00;4975701;28;20462;-59
2022/01/14 04:55:45;;;;;;;36.57;17.53;;;;;;;-3.95;100.00;98794.59;4973038;28;20477;-59
2022/01/14 04:58:13;;;;;;;39.50;18.00;;;;;;;-3.90;100.00;98798.75;4971901;28;20523;-58
2022/01/14 05:00:42;;;;;;;29.83;17.60;;;;;;;-3.84;100.00;98803.72;4991386;28;20483;-58
2022/01/14 05:03:12;;;;;;;30.60;15.63;;;;;;;-3.70;100.00;98804.09;5014514;28;20497;-59
2022/01/14 05:05:44;;;;;;;28.13;15.27;;;;;;;-3.66;100.00;98800.50;5013375;28;20482;-58
2022/01/14 05:08:22;;;;;;;34.47;21.00;;;;;;;-3.83;100.00;98795.91;5012729;28;20500;-56
2022/01/14 05:11:03;;;;;;;30.73;16.20;;;;;;;-3.84;100.00;98795.94;5014027;28;20859;-63
2022/01/14 05:13:31;;;;;;;25.27;15.47;;;;;;;-3.93;100.00;98789.38;5013975;28;20460;-60
2022/01/14 05:16:00;;;;;;;34.83;16.13;;;;;;;-3.86;100.00;98792.56;5014819;28;20458;-61
2022/01/14 05:18:30;;;;;;;34.80;15.97;;;;;;;-3.90;100.00;98791.84;5014131;28;20467;-60
2022/01/14 05:20:58;;;;;;;29.87;17.27;;;;;;;-4.04;100.00;98789.75;5014716;28;20464;-59
2022/01/14 05:23:27;;;;;;;31.40;17.93;;;;;;;-3.93;100.00;98789.38;5013991;28;20471;-60
2022/01/14 05:25:55;;;;;;;32.30;18.33;;;;;;;-3.95;100.00;98792.00;4996826;28;20514;-61
2022/01/14 05:28:23;;;;;;;31.10;17.53;;;;;;;-3.97;100.00;98793.81;4998161;28;20805;-58
2022/01/14 05:30:52;;;;;;;35.23;17.07;;;;;;;-4.02;100.00;98792.25;4995777;28;20487;-60
2022/01/14 05:33:20;;;;;;;25.60;16.13;;;;;;;-3.81;100.00;98795.84;4996500;28;20552;-55
2022/01/14 05:35:50;;;;;;;41.15;23.65;;;;;;;-3.86;100.00;98796.03;4995834;28;20983;-60
2022/01/14 05:38:18;;;;;;;32.93;16.60;;;;;;;-3.94;100.00;98791.09;4991198;28;20679;-61
2022/01/14 05:40:46;;;;;;;26.43;15.10;;;;;;;-4.01;100.00;98781.00;4995135;28;20487;-54
2022/01/14 05:43:15;;;;;;;32.03;15.50;;;;;;;-3.99;100.00;98784.38;4996661;28;20464;-61
2022/01/14 05:45:43;;;;;;;30.40;16.77;;;;;;;-4.04;100.00;98786.28;4994624;28;20490;-60
2022/01/14 05:48:11;;;;;;;29.77;15.23;;;;;;;-4.25;100.00;98789.53;4990083;28;20460;-57
2022/01/14 05:50:40;;;;;;;27.57;15.90;;;;;;;-4.22;100.00;98788.63;4995472;28;20492;-56
2022/01/14 05:53:10;;;;;;;27.00;15.47;;;;;;;-4.42;100.00;98782.34;4995863;28;20468;-57
2022/01/14 05:55:38;;;;;;;31.23;17.97;;;;;;;-4.36;100.00;98786.47;4994946;28;20487;-55
2022/01/14 05:58:07;;;;;;;32.20;15.93;;;;;;;-4.37;100.00;98784.78;4991415;28;20964;-54
2022/01/14 06:00:35;;;;;;;33.13;15.87;;;;;;;-4.32;100.00;98784.66;5000207;28;20460;-58
2022/01/14 06:03:03;;;;;;;32.17;15.93;;;;;;;-4.29;100.00;98789.72;4992880;28;20826;-57
2022/01/14 06:05:34;;;;;;;25.60;15.93;;;;;;;-4.27;100.00;98785.34;4994724;28;20587;-58
2022/01/14 06:08:02;;;;;;;31.67;15.27;;;;;;;-4.31;100.00;98782.00;4995695;28;20518;-58
2022/01/14 06:10:32;;;;;;;31.67;16.37;;;;;;;-4.42;100.00;98774.56;4996435;28;20476;-57
2022/01/14 06:13:00;;;;;;;34.00;18.87;;;;;;;-4.56;100.00;98776.78;4994662;28;20464;-56
2022/01/14 06:15:28;;;;;;;36.97;18.27;;;;;;;-4.43;100.00;98772.88;4993134;28;20478;-59
2022/01/14 06:17:56;;;;;;;29.27;16.67;;;;;;;-4.37;100.00;98769.25;4992161;28;20464;-57
2022/01/14 06:20:25;;;;;;;37.23;16.30;;;;;;;-4.39;100.00;98779.66;4996137;28;20456;-57
2022/01/14 06:22:53;;;;;;;37.63;19.83;;;;;;;-4.42;100.00;98768.56;4987012;28;20482;-56
2022/01/14 06:25:21;;;;;;;34.43;16.53;;;;;;;-4.53;100.00;98756.84;4999960;28;20496;-55
2022/01/14 06:27:51;;;;;;;30.57;17.50;;;;;;;-4.54;100.00;98765.50;4997429;28;20986;-52
2022/01/14 06:30:21;;;;;;;27.73;16.00;;;;;;;-4.49;100.00;98769.69;5007317;28;20479;-55
2022/01/14 06:32:52;;;;;;;32.70;16.87;;;;;;;-4.54;100.00;98769.81;5007250;28;20468;-60
2022/01/14 06:35:21;;;;;;;27.37;13.67;;;;;;;-4.62;100.00;98764.06;5000948;28;20829;-57
2022/01/14 06:37:50;;;;;;;28.70;16.67;;;;;;;-4.55;100.00;98768.13;4999123;28;21057;-59
2022/01/14 06:40:18;;;;;;;24.93;15.20;;;;;;;-4.53;100.00;98759.44;4999825;28;20780;-61
2022/01/14 06:42:51;;;;;;;29.80;16.57;;;;;;;-4.53;100.00;98759.44;5001517;28;20877;-61
2022/01/14 06:45:20;;;;;;;33.00;15.53;;;;;;;-4.53;100.00;98761.16;5001046;28;20475;-60
2022/01/14 06:47:48;;;;;;;24.73;15.27;;;;;;;-4.40;100.00;98756.44;5007024;28;20463;-57
2022/01/14 06:50:17;;;;;;;24.77;14.20;;;;;;;-4.45;100.00;98743.63;4996391;28;20893;-58
2022/01/14 06:52:45;;;;;;;28.33;16.40;;;;;;;-4.28;100.00;98745.66;5000667;28;20522;-55
2022/01/14 06:55:14;;;;;;;31.83;16.80;;;;;;;-4.40;100.00;98754.66;4994715;28;21201;-56
2022/01/14 06:57:42;;;;;;;36.27;16.17;;;;;;;-4.40;100.00;98748.66;5007243;28;20862;-59
2022/01/14 07:00:15;;;;;;;27.00;15.13;;;;;;;-4.37;100.00;98741.63;4999210;28;20622;-58
2022/01/14 07:02:43;;;;;;;31.87;16.60;;;;;;;-4.38;100.00;98745.13;5002106;28;20459;-53
2022/01/14 07:05:12;;;;;;;34.60;16.57;;;;;;;-4.39;100.00;98751.19;4997245;28;20534;-58
2022/01/14 07:07:41;;;;;;;33.10;16.97;;;;;;;-4.29;100.00;98756.06;4995988;28;20880;-57
2022/01/14 07:10:13;;;;;;;29.40;16.23;;;;;;;-4.24;100.00;98761.94;4999195;28;20457;-56
2022/01/14 07:12:43;;;;;;;33.53;18.13;;;;;;;-4.23;100.00;98764.47;5004452;28;20843;-59
2022/01/14 07:15:15;;;;;;;39.70;16.07;;;;;;;-4.14;100.00;98762.47;4997773;28;21332;-60
2022/01/14 07:17:44;;;;;;;33.43;17.67;;;;;;;-4.00;100.00;98762.84;4998650;28;20460;-58
2022/01/14 07:20:15;;;;;;;50.33;25.90;;;;;;;-3.92;100.00;98766.00;5001928;28;20461;-58
2022/01/14 07:22:45;;;;;;;42.43;19.07;;;;;;;-3.95;100.00;98762.69;4999928;28;20209;-60
2022/01/14 07:25:18;;;;;;;29.53;17.13;;;;;;;-4.04;100.00;98760.38;4998701;28;21991;-58
2022/01/14 07:27:46;;;;;;;32.37;18.43;;;;;;;-4.05;100.00;98762.16;4993770;28;20472;-60
2022/01/14 07:30:17;;;;;;;36.67;18.30;;;;;;;-3.94;100.00;98772.16;4998039;28;20974;-59
2022/01/14 07:32:45;;;;;;;33.00;17.20;;;;;;;-3.93;100.00;98760.88;4993841;28;20456;-60
2022/01/14 07:35:14;;;;;;;37.03;18.30;;;;;;;-3.95;100.00;98773.88;4998107;28;20479;-59
2022/01/14 07:37:42;;;;;;;29.77;18.13;;;;;;;-3.94;100.00;98777.31;4994846;28;20464;-58
2022/01/14 07:40:11;;;;;;;28.30;16.73;;;;;;;-3.85;100.00;98773.53;4998287;28;20456;-58
2022/01/14 07:42:40;;;;;;;41.17;18.23;;;;;;;-3.80;100.00;98777.69;5005299;28;21345;-54
2022/01/14 07:45:09;;;;;;;29.33;18.23;;;;;;;-3.71;100.00;98776.50;5001470;28;20542;-55
2022/01/14 07:47:38;;;;;;;34.90;20.20;;;;;;;-3.68;100.00;98780.72;5002187;28;21308;-56
2022/01/14 07:50:07;;;;;;;35.43;19.13;;;;;;;-3.73;100.00;98770.53;4996656;28;20469;-58
2022/01/14 07:52:36;;;;;;;36.77;16.93;;;;;;;-3.78;100.00;98768.09;4998827;28;20930;-57
2022/01/14 07:55:05;;;;;;;35.90;18.47;;;;;;;-3.63;100.00;98778.81;4997137;28;20486;-55
2022/01/14 07:57:33;;;;;;;35.10;18.67;;;;;;;-3.71;100.00;98770.47;4997511;28;20460;-58
2022/01/14 08:00:03;;;;;;;38.57;16.43;;;;;;;-3.77;100.00;98771.56;5000460;28;20493;-55
2022/01/14 08:02:31;;;;;;;35.37;17.93;;;;;;;-3.68;100.00;98762.59;4999070;28;20890;-56
2022/01/14 08:05:01;;;;;;;34.00;19.13;;;;;;;-3.57;100.00;98757.00;4998696;28;20491;-55
2022/01/14 08:07:33;;;;;;;33.33;19.30;;;;;;;-3.56;100.00;98762.16;4998180;28;20539;-55
2022/01/14 08:10:01;;;;;;;37.87;20.20;;;;;;;-3.31;100.00;98763.81;4995812;28;20475;-59
2022/01/14 08:12:29;;;;;;;36.80;18.30;;;;;;;-3.31;100.00;98766.41;4998658;28;20550;-59
2022/01/14 08:14:58;;;;;;;39.47;19.53;;;;;;;-3.49;100.00;98761.03;5005017;28;20989;-58
2022/01/14 08:17:26;;;;;;;34.10;18.80;;;;;;;-3.47;100.00;98765.31;4997788;28;20619;-57
2022/01/14 08:19:54;;;;;;;35.13;17.40;;;;;;;-3.49;100.00;98765.34;4997185;28;20461;-61
2022/01/14 08:22:24;;;;;;;36.40;17.83;;;;;;;-3.31;100.00;98770.78;5002642;28;20518;-57
2022/01/14 08:24:52;;;;;;;33.47;18.30;;;;;;;-3.25;100.00;98760.16;4988575;28;20503;-56
2022/01/14 08:27:20;;;;;;;35.13;19.13;;;;;;;-3.24;100.00;98757.50;4996776;28;20452;-53
2022/01/14 08:29:50;;;;;;;34.70;18.17;;;;;;;-3.16;100.00;98753.78;4993401;28;20766;-52
2022/01/14 08:32:18;;;;;;;34.27;18.57;;;;;;;-3.08;100.00;98749.97;4995000;28;20501;-53
2022/01/14 08:34:46;;;;;;;30.57;17.27;;;;;;;-2.86;100.00;98748.28;4999959;28;20476;-58
2022/01/14 08:37:15;;;;;;;31.80;18.63;;;;;;;-2.77;100.00;98747.94;4995860;28;20457;-58
2022/01/14 08:39:44;;;;;;;36.90;20.67;;;;;;;-2.92;100.00;98750.22;4993998;28;20997;-58
2022/01/14 08:42:13;;;;;;;33.43;19.10;;;;;;;-2.97;100.00;98746.13;4997644;28;20487;-55
2022/01/14 08:44:42;;;;;;;40.73;18.90;;;;;;;-2.96;100.00;98751.25;4997165;28;20476;-57
2022/01/14 08:47:11;;;;;;;29.87;18.60;;;;;;;-2.92;100.00;98754.59;4993642;28;20464;-57
2022/01/14 08:49:40;;;;;;;33.10;18.87;;;;;;;-2.95;100.00;98750.34;4995395;28;20460;-57
2022/01/14 08:52:08;;;;;;;39.10;18.10;;;;;;;-2.98;100.00;98745.28;4993759;28;20965;-54
2022/01/14 08:54:36;;;;;;;34.10;17.83;;;;;;;-2.91;100.00;98741.53;4996839;28;20502;-58
2022/01/14 08:57:07;;;;;;;31.50;19.77;;;;;;;-2.95;100.00;98745.16;4994481;28;20455;-56
2022/01/14 08:59:36;;;;;;;34.03;18.70;;;;;;;-2.94;100.00;98746.84;4995494;28;20570;-53
2022/01/14 09:02:05;;;;;;;31.97;18.17;;;;;;;-2.81;100.00;98747.22;4992336;28;20453;-57
2022/01/14 09:04:34;;;;;;;37.70;18.97;;;;;;;-2.84;100.00;98752.53;4996419;28;20486;-52
2022/01/14 09:07:03;;;;;;;38.30;17.53;;;;;;;-2.66;100.00;98745.75;4997696;28;20674;-59
2022/01/14 09:09:32;;;;;;;34.90;19.37;;;;;;;-2.85;100.00;98752.56;4993931;28;20463;-59
2022/01/14 09:12:02;;;;;;;34.07;18.77;;;;;;;-2.96;100.00;98753.03;4993351;28;20510;-58
2022/01/14 09:14:31;;;;;;;35.37;18.73;;;;;;;-2.96;100.00;98742.63;4996324;28;21162;-59
2022/01/14 09:17:00;;;;;;;38.57;17.80;;;;;;;-2.67;100.00;98744.06;4995940;28;20460;-57
2022/01/14 09:19:28;;;;;;;38.73;19.97;;;;;;;-2.61;100.00;98742.97;4998388;28;20464;-55
2022/01/14 09:21:56;;;;;;;34.70;19.23;;;;;;;-2.60;100.00;98749.84;4993578;28;21233;-57
2022/01/14 09:24:43;;;;;;;34.80;18.63;;;;;;;-2.75;100.00;98753.91;4994888;28;21080;-58
2022/01/14 09:27:13;;;;;;;34.50;18.40;;;;;;;-2.57;100.00;98760.13;4995840;28;20495;-55
2022/01/14 09:29:44;;;;;;;32.47;17.97;;;;;;;-2.57;100.00;98759.25;4997335;28;20700;-57
2022/01/14 09:32:12;;;;;;;35.80;18.60;;;;;;;-2.60;100.00;98759.38;4991291;28;20901;-58
2022/01/14 09:34:40;;;;;;;32.87;17.57;;;;;;;-2.65;100.00;98760.41;4994681;28;20488;-59
2022/01/14 09:37:09;;;;;;;30.03;16.93;;;;;;;-2.30;100.00;98766.81;4990170;28;20471;-57
2022/01/14 09:39:39;;;;;;;35.53;20.40;;;;;;;-2.43;100.00;98762.16;4993224;28;20460;-56
2022/01/14 09:42:08;;;;;;;28.30;17.73;;;;;;;-2.33;100.00;98758.25;4996043;28;20449;-55
2022/01/14 09:44:37;;;;;;;27.77;16.30;;;;;;;-2.19;100.00;98752.50;4994006;28;21130;-57
2022/01/14 09:47:07;;;;;;;33.50;17.03;;;;;;;-1.99;100.00;98749.94;4995758;28;20470;-58
2022/01/14 09:49:36;;;;;;;35.10;17.73;;;;;;;-2.22;100.00;98743.97;4993382;28;20212;-57
2022/01/14 09:52:06;;;;;;;35.03;19.43;;;;;;;-2.27;100.00;98751.97;4995693;28;20475;-60
2022/01/14 09:54:34;;;;;;;29.17;16.87;;;;;;;-2.28;100.00;98749.44;4995333;28;20476;-56
2022/01/14 09:57:02;;;;;;;22.47;16.00;;;;;;;-2.54;100.00;98753.94;4993747;28;21025;-55
2022/01/14 09:59:30;;;;;;;28.23;16.87;;;;;;;-2.34;100.00;98746.19;4995596;28;20268;-57
2022/01/14 10:02:00;;;;;;;29.77;16.87;;;;;;;-2.43;100.00;98741.38;4995068;28;20525;-56
2022/01/14 10:04:29;;;;;;;27.77;16.97;;;;;;;-2.29;100.00;98737.34;4994014;28;20490;-59
2022/01/14 10:06:59;;;;;;;28.10;16.27;;;;;;;-2.21;100.00;98743.06;4994473;28;20484;-57
2022/01/14 10:09:34;;;;;;;29.07;17.83;;;;;;;-2.05;100.00;98743.25;4993541;28;20459;-59
2022/01/14 10:12:05;;;;;;;28.40;17.70;;;;;;;-1.70;100.00;98732.25;4994786;28;20468;-58
2022/01/14 10:14:35;;;;;;;26.47;17.17;;;;;;;-1.57;100.00;98733.38;4993949;28;20217;-61
2022/01/14 10:17:05;;;;;;;35.30;23.70;;;;;;;-1.55;100.00;98734.16;4996333;28;20450;-57
2022/01/14 10:19:37;;;;;;;36.05;22.08;;;;;;;-1.66;100.00;98726.00;4988024;28;20492;-56
2022/01/14 10:22:19;;;;;;;33.67;19.47;;;;;;;-1.82;100.00;98723.25;4997515;28;20210;-55
2022/01/14 10:24:56;;;;;;;36.20;22.67;;;;;;;-1.71;100.00;98727.94;4993817;28;20451;-59
2022/01/14 10:27:35;;;;;;;26.57;18.10;;;;;;;-1.77;100.00;98727.28;4991224;28;20228;-58
2022/01/14 10:30:16;;;;;;;34.50;22.02;;;;;;;-1.50;100.00;98721.78;4992949;28;21078;-59
2022/01/14 10:32:46;;;;;;;32.60;22.77;;;;;;;-1.52;100.00;98721.00;4976829;28;20951;-56
2022/01/14 10:35:19;;;;;;;32.50;21.23;;;;;;;-1.52;100.00;98707.16;4981319;28;20456;-55
2022/01/14 10:37:48;;;;;;;33.00;22.40;;;;;;;-1.46;100.00;98702.53;4974658;28;20454;-59
2022/01/14 10:40:19;;;;;;;33.33;22.73;;;;;;;-1.36;100.00;98697.75;4976761;28;20503;-56
2022/01/14 10:42:50;;;;;;;31.30;18.43;;;;;;;-1.03;100.00;98691.00;4979393;28;20446;-60
2022/01/14 10:45:38;;;;;;;26.10;17.50;;;;;;;-0.98;100.00;98696.84;4979685;28;20946;-58
2022/01/14 10:48:08;;;;;;;26.10;16.50;;;;;;;-0.86;100.00;98694.56;4973876;28;20210;-58
2022/01/14 10:50:40;;;;;;;27.40;16.80;;;;;;;-1.09;100.00;98684.38;4970123;28;20246;-58
2022/01/14 10:53:11;;;;;;;28.73;15.80;;;;;;;-0.94;100.00;98688.00;4980487;28;20225;-54
2022/01/14 10:56:01;;;;;;;24.30;16.47;;;;;;;-1.07;100.00;98686.88;4975191;28;20925;-58
2022/01/14 10:58:32;;;;;;;25.83;16.80;;;;;;;-1.01;100.00;98689.19;4980097;28;20722;-60
2022/01/14 11:01:05;;;;;;;30.50;17.60;;;;;;;-0.82;100.00;98685.69;4969717;28;20454;-55
2022/01/14 11:03:35;;;;;;;35.35;22.35;;;;;;;-0.69;100.00;98688.56;4978087;28;20483;-59
2022/01/14 11:06:20;;;;;;;23.17;15.70;;;;;;;-0.59;100.00;98701.00;4977311;28;20757;-59
2022/01/14 11:08:49;;;;;;;32.83;22.60;;;;;;;-0.71;100.00;98696.41;4971854;28;20470;-61
2022/01/14 11:11:17;;;;;;;30.90;19.67;;;;;;;-0.76;100.00;98695.81;4979967;28;20260;-58
2022/01/14 11:13:46;;;;;;;31.57;16.70;;;;;;;-0.67;100.00;98684.94;4982923;28;20245;-56
2022/01/14 11:16:14;;;;;;;26.87;17.60;;;;;;;-0.53;100.00;98676.44;4982825;28;20216;-59
2022/01/14 11:18:44;;;;;;;24.50;16.33;;;;;;;-0.68;100.00;98672.00;4982012;28;20307;-58
2022/01/14 12:46:03;;;;;;;28.00;16.27;;;;;;;-1.88;100.00;98547.66;5070553;27;20591;-57
2022/01/14 12:48:39;;;;;;;32.57;19.20;;;;;;;-1.73;100.00;98551.31;5072113;28;20917;-53
2022/01/14 12:51:12;;;;;;;32.90;17.97;;;;;;;-1.65;100.00;98537.94;5065187;28;20848;-55
2022/01/14 12:54:04;;;;;;;32.80;19.10;;;;;;;-1.46;100.00;98537.91;5063497;28;20507;-61
2022/01/14 12:56:34;;;;;;;32.20;19.20;;;;;;;-1.37;100.00;98540.03;5061820;28;20475;-58
2022/01/14 12:59:06;;;;;;;29.03;17.57;;;;;;;-1.32;100.00;98538.06;5066188;28;20484;-56
2022/01/14 13:01:37;;;;;;;32.23;18.83;;;;;;;-1.32;100.00;98534.63;5064070;28;20299;-53
2022/01/14 13:04:09;;;;;;;31.90;19.47;;;;;;;-1.37;100.00;98528.78;5061869;28;20493;-56